createdAt,value
2023-04-17T00:02:22.501Z,99047.38
2023-04-17T00:07:28.402Z,99047.28
2023-04-17T00:12:32.520Z,99046.97
2023-04-17T00:17:35.467Z,99051.44
2023-04-17T00:22:38.317Z,99042.41
2023-04-17T00:27:42.895Z,99044.13
2023-04-17T00:32:45.964Z,99044.00
2023-04-17T00:37:49.302Z,99040.59
2023-04-17T00:42:56.249Z,99039.19
2023-04-17T00:48:02.268Z,99039.19
2023-04-17T00:53:05.123Z,99034.00
2023-04-17T00:58:10.097Z,99029.31
2023-04-17T01:03:13.304Z,99026.97
2023-04-17T01:08:16.612Z,99029.19
2023-04-17T01:13:20.858Z,99029.19
2023-04-17T01:18:23.752Z,99031.31
2023-04-17T01:23:28.485Z,99028.78
2023-04-17T01:28:32.579Z,99035.94
2023-04-17T01:33:35.385Z,99030.84
2023-04-17T01:38:38.585Z,99032.34
2023-04-17T01:43:44.084Z,99035.63
2023-04-17T01:48:47.650Z,99024.16
2023-04-17T01:53:50.456Z,99031.38
2023-04-17T01:58:54.631Z,99035.72
2023-04-17T02:03:57.627Z,99031.47
2023-04-17T02:09:00.650Z,99025.53
2023-04-17T02:14:04.769Z,99016.47
2023-04-17T02:19:07.553Z,99025.09
2023-04-17T02:24:10.393Z,99009.19
2023-04-17T02:29:14.670Z,99019.25
2023-04-17T02:34:18.069Z,99023.50
2023-04-17T02:39:21.478Z,99023.63
2023-04-17T02:44:25.626Z,99029.75
2023-04-17T02:49:28.493Z,99034.31
2023-04-17T02:54:32.432Z,99025.63
2023-04-17T02:59:36.975Z,99024.75
2023-04-17T03:04:39.785Z,99029.31
2023-04-17T03:09:42.723Z,99029.84
2023-04-17T03:14:47.474Z,99036.50
2023-04-17T03:19:50.257Z,99035.13
2023-04-17T03:24:53.245Z,99034.38
2023-04-17T03:29:59.182Z,99041.03
2023-04-17T03:35:03.151Z,99036.97
2023-04-17T03:40:08.824Z,99040.25
2023-04-17T03:45:13.274Z,99037.59
2023-04-17T03:50:16.468Z,99033.34
2023-04-17T03:55:26.153Z,99038.38
2023-04-17T04:00:32.602Z,99035.53
2023-04-17T04:05:41.757Z,99044.13
2023-04-17T04:10:47.091Z,99038.38
2023-04-17T04:15:57.383Z,99039.41
2023-04-17T04:21:03.458Z,99039.41
2023-04-17T04:26:09.620Z,99041.19
2023-04-17T04:31:18.715Z,99049.09
2023-04-17T04:36:23.071Z,99046.50
2023-04-17T04:41:34.928Z,99050.78
2023-04-17T04:46:42.441Z,99049.75
2023-04-17T04:51:45.418Z,99050.38
2023-04-17T04:56:49.069Z,99052.81
2023-04-17T05:01:53.864Z,99060.38
2023-04-17T05:06:59.562Z,99062.66
2023-04-17T05:12:05.633Z,99066.69
2023-04-17T05:17:10.731Z,99063.53
2023-04-17T05:22:14.666Z,99066.44
2023-04-17T05:27:35.426Z,99070.88
2023-04-17T05:32:40.795Z,99072.44
2023-04-17T05:38:05.724Z,99076.00
2023-04-17T05:43:10.469Z,99081.63
2023-04-17T05:48:15.835Z,99081.97
2023-04-17T05:53:19.684Z,99077.09
2023-04-17T05:58:26.732Z,99079.84
2023-04-17T06:03:34.005Z,99086.03
2023-04-17T06:08:44.600Z,99085.28
2023-04-17T06:13:47.522Z,99094.00
2023-04-17T06:18:53.703Z,99092.72
2023-04-17T06:23:56.607Z,99103.78
2023-04-17T06:29:00.829Z,99092.13
2023-04-17T06:34:09.255Z,99098.41
2023-04-17T06:39:17.125Z,99099.97
2023-04-17T06:44:22.372Z,99107.34
2023-04-17T06:49:27.588Z,99103.59
2023-04-17T06:54:30.394Z,99113.50
2023-04-17T06:59:35.729Z,99112.97
2023-04-17T07:04:40.442Z,99107.13
2023-04-17T07:09:45.293Z,99109.41
2023-04-17T07:14:48.143Z,99103.97
2023-04-17T07:19:52.444Z,99113.47
2023-04-17T07:24:55.345Z,99118.09
2023-04-17T07:29:58.135Z,99118.44
2023-04-17T07:35:02.999Z,99126.09
2023-04-17T07:40:10.348Z,99128.41
2023-04-17T07:45:13.525Z,99124.34
2023-04-17T07:50:19.720Z,99134.06
2023-04-17T07:55:22.752Z,99140.41
2023-04-17T08:00:25.615Z,99139.38
2023-04-17T08:05:30.133Z,99140.66
2023-04-17T08:10:32.960Z,99150.47
2023-04-17T08:15:40.688Z,99143.59
2023-04-17T08:20:44.884Z,99155.94
2023-04-17T08:25:49.921Z,99154.53
2023-04-17T08:30:53.889Z,99158.13
2023-04-17T08:35:59.083Z,99164.31
2023-04-17T08:41:07.981Z,99161.66
2023-04-17T08:46:11.398Z,99162.91
2023-04-17T08:51:16.216Z,99163.09
2023-04-17T08:56:18.957Z,99158.88
2023-04-17T09:01:21.860Z,99173.47
2023-04-17T09:06:29.200Z,99165.25
2023-04-17T09:11:31.965Z,99173.47
2023-04-17T09:16:36.215Z,99169.41
2023-04-17T09:21:40.544Z,99167.16
2023-04-17T09:26:43.360Z,99168.94
2023-04-17T09:31:47.591Z,99165.16
2023-04-17T09:36:55.909Z,99162.59
2023-04-17T09:42:03.789Z,99162.34
2023-04-17T09:47:08.773Z,99173.72
2023-04-17T09:52:14.263Z,99174.09
2023-04-17T09:57:19.110Z,99169.75
2023-04-17T10:02:22.645Z,99173.44
2023-04-17T10:07:27.918Z,99169.69
2023-04-17T10:12:33.324Z,99179.47
2023-04-17T10:17:38.190Z,99181.88
2023-04-17T10:22:43.913Z,99186.59
2023-04-17T10:27:49.953Z,99183.44
2023-04-17T10:33:22.872Z,99184.16
2023-04-17T10:38:37.448Z,99178.16
2023-04-17T10:43:45.903Z,99175.63
2023-04-17T10:48:52.057Z,99175.59
2023-04-17T10:53:58.890Z,99166.47
2023-04-17T10:59:03.283Z,99174.22
2023-04-17T11:04:06.866Z,99175.31
2023-04-17T11:09:12.127Z,99174.84
2023-04-17T11:14:19.379Z,99168.28
2023-04-17T11:19:23.537Z,99158.72
2023-04-17T11:24:30.079Z,99159.22
2023-04-17T11:29:33.679Z,99162.06
2023-04-17T11:34:38.669Z,99152.53
2023-04-17T11:39:45.014Z,99146.25
2023-04-17T11:44:48.632Z,99154.38
2023-04-17T11:49:52.599Z,99152.34
2023-04-17T11:55:00.021Z,99155.63
2023-04-17T12:00:14.436Z,99156.13
2023-04-17T12:05:18.557Z,99159.47
2023-04-17T12:10:24.815Z,99155.97
2023-04-17T12:15:27.636Z,99149.31
2023-04-17T12:20:32.266Z,99151.03
2023-04-17T12:25:37.017Z,99162.13
2023-04-17T12:30:39.874Z,99163.38
2023-04-17T12:35:43.610Z,99149.56
2023-04-17T12:40:47.723Z,99147.25
2023-04-17T12:45:50.850Z,99158.94
2023-04-17T12:50:54.463Z,99148.97
2023-04-17T12:55:58.604Z,99150.66
2023-04-17T13:01:03.531Z,99138.06
2023-04-17T13:06:06.558Z,99134.91
2023-04-17T13:11:13.056Z,99150.91
2023-04-17T13:16:16.137Z,99141.69
2023-04-17T13:21:19.138Z,99135.31
2023-04-17T13:26:26.683Z,99124.09
2023-04-17T13:31:31.728Z,99118.63
2023-04-17T13:36:35.126Z,99115.75
2023-04-17T13:41:39.399Z,99107.59
2023-04-17T13:46:44.263Z,99111.78
2023-04-17T13:51:47.189Z,99111.09
2023-04-17T13:56:51.509Z,99110.66
2023-04-17T14:01:55.220Z,99106.72
2023-04-17T14:07:00.893Z,99096.19
2023-04-17T14:12:08.105Z,99096.19
2023-04-17T14:17:11.206Z,99092.34
2023-04-17T14:22:15.360Z,99102.22
2023-04-17T14:27:20.147Z,99092.63
2023-04-17T14:32:23.873Z,99099.09
2023-04-17T14:37:28.343Z,99095.94
2023-04-17T14:42:38.253Z,99086.50
2023-04-17T14:47:56.401Z,99087.81
2023-04-17T14:53:02.986Z,99080.09
2023-04-17T14:58:07.261Z,99082.88
2023-04-17T15:03:10.145Z,99089.19
2023-04-17T15:08:13.339Z,99095.59
2023-04-17T15:13:17.433Z,99091.69
2023-04-17T15:18:20.845Z,99089.97
2023-04-17T15:23:25.413Z,99095.94
2023-04-17T15:28:29.631Z,99097.66
2023-04-17T15:33:32.448Z,99093.53
2023-04-17T15:38:38.304Z,99102.59
2023-04-17T15:43:42.576Z,99100.22
2023-04-17T15:48:54.975Z,99097.38
2023-04-17T15:54:08.276Z,99094.09
2023-04-17T15:59:13.131Z,99086.19
2023-04-17T16:04:19.378Z,99090.56
2023-04-17T16:09:24.523Z,99093.50
2023-04-17T16:14:29.414Z,99086.19
2023-04-17T16:19:33.028Z,99090.44
2023-04-17T16:24:35.955Z,99088.63
2023-04-17T16:29:40.311Z,99087.34
2023-04-17T16:34:43.974Z,99085.19
2023-04-17T16:39:52.396Z,99091.63
2023-04-17T16:45:00.181Z,99094.63
2023-04-17T16:50:04.804Z,99088.00
2023-04-17T16:55:10.132Z,99091.88
2023-04-17T17:00:15.377Z,99088.72
2023-04-17T17:05:18.143Z,99088.28
2023-04-17T17:10:21.094Z,99093.47
2023-04-17T17:15:25.680Z,99091.44
2023-04-17T17:20:30.035Z,99093.53
2023-04-17T17:25:33.312Z,99084.44
2023-04-17T17:30:37.644Z,99092.81
2023-04-17T17:35:40.500Z,99086.69
2023-04-17T17:40:46.176Z,99091.69
2023-04-17T17:45:51.980Z,99099.44
2023-04-17T17:50:55.004Z,99100.13
2023-04-17T17:55:58.311Z,99100.56
2023-04-17T18:01:03.325Z,99102.69
2023-04-17T18:06:06.331Z,99107.00
2023-04-17T18:11:09.026Z,99105.28
2023-04-17T18:16:13.185Z,99106.78
2023-04-17T18:21:15.962Z,99108.34
2023-04-17T18:26:19.415Z,99110.09
2023-04-17T18:31:25.137Z,99114.56
2023-04-17T18:36:28.929Z,99119.59
2023-04-17T18:41:32.342Z,99124.38
2023-04-17T18:46:37.614Z,99126.72
2023-04-17T18:51:45.366Z,99133.25
2023-04-17T18:56:48.250Z,99143.31
2023-04-17T19:01:52.445Z,99141.09
2023-04-17T19:06:55.293Z,99135.03
2023-04-17T19:11:58.561Z,99145.94
2023-04-17T19:17:03.349Z,99142.25
2023-04-17T19:22:06.458Z,99143.19
2023-04-17T19:27:09.188Z,99140.50
2023-04-17T19:32:16.328Z,99142.13
2023-04-17T19:37:20.090Z,99148.41
2023-04-17T19:42:24.880Z,99151.03
2023-04-17T19:47:31.047Z,99151.59
2023-04-17T19:52:33.955Z,99151.63
2023-04-17T19:57:37.164Z,99155.16
2023-04-17T20:02:41.685Z,99150.59
2023-04-17T20:07:44.495Z,99151.50
2023-04-17T20:12:47.421Z,99147.78
2023-04-17T20:17:52.116Z,99152.81
2023-04-17T20:22:54.897Z,99156.13
2023-04-17T20:27:58.201Z,99148.03
2023-04-17T20:33:02.421Z,99143.69
2023-04-17T20:38:06.235Z,99145.84
2023-04-17T20:43:09.493Z,99146.13
2023-04-17T20:48:13.686Z,99148.44
2023-04-17T20:53:16.894Z,99136.28
2023-04-17T20:58:20.095Z,99138.66
2023-04-17T21:03:24.731Z,99139.44
2023-04-17T21:08:27.861Z,99143.47
2023-04-17T21:13:30.896Z,99140.91
2023-04-17T21:18:35.372Z,99138.84
2023-04-17T21:23:40.250Z,99139.94
2023-04-17T21:28:43.654Z,99133.63
2023-04-17T21:33:47.745Z,99125.69
2023-04-17T21:38:50.477Z,99135.66
2023-04-17T21:43:53.604Z,99124.78
2023-04-17T21:48:57.954Z,99133.97
2023-04-17T21:54:00.692Z,99135.38
2023-04-17T21:59:03.553Z,99134.44
2023-04-17T22:04:07.667Z,99119.19
2023-04-17T22:09:10.500Z,99125.69
2023-04-17T22:14:13.640Z,99128.34
2023-04-17T22:19:17.804Z,99128.97
2023-04-17T22:24:20.662Z,99130.81
2023-04-17T22:29:23.428Z,99134.69
2023-04-17T22:34:27.480Z,99135.13
2023-04-17T22:39:30.488Z,99142.16
2023-04-17T22:44:34.249Z,99136.44
2023-04-17T22:49:38.743Z,99134.88
2023-04-17T22:54:41.468Z,99131.84
2023-04-17T22:59:44.232Z,99130.91
2023-04-17T23:04:48.271Z,99135.25
2023-04-17T23:09:51.025Z,99131.44
2023-04-17T23:14:53.860Z,99138.22
2023-04-17T23:19:57.908Z,99131.09
2023-04-17T23:25:00.650Z,99131.41
2023-04-17T23:30:03.664Z,99131.91
2023-04-17T23:35:10.236Z,99132.75
2023-04-17T23:40:13.664Z,99126.69
2023-04-17T23:45:16.415Z,99130.38
2023-04-17T23:50:20.704Z,99132.56
2023-04-17T23:55:26.284Z,99130.94
